createdAt,value
2023-02-19T00:01:34.529Z,4.52
2023-02-19T00:04:13.614Z,4.50
2023-02-19T00:06:45.652Z,4.50
2023-02-19T00:09:18.440Z,4.46
2023-02-19T00:11:48.409Z,4.44
2023-02-19T00:14:21.495Z,4.45
2023-02-19T00:16:51.317Z,4.45
2023-02-19T00:19:21.662Z,4.42
2023-02-19T00:21:53.217Z,4.42
2023-02-19T00:24:23.005Z,4.39
2023-02-19T00:26:52.791Z,4.38
2023-02-19T00:29:22.721Z,4.38
2023-02-19T00:31:52.573Z,4.38
2023-02-19T00:34:22.439Z,4.38
2023-02-19T00:36:52.234Z,4.37
2023-02-19T00:39:22.145Z,4.36
2023-02-19T00:41:51.998Z,4.35
2023-02-19T00:44:21.806Z,4.35
2023-02-19T00:46:51.629Z,4.36
2023-02-19T00:49:23.555Z,4.35
2023-02-19T00:51:53.886Z,4.36
2023-02-19T00:54:25.016Z,4.36
2023-02-19T00:56:53.981Z,4.36
2023-02-19T00:59:23.741Z,4.36
2023-02-19T01:01:53.536Z,4.35
2023-02-19T01:04:23.358Z,4.35
2023-02-19T01:06:52.005Z,4.36
2023-02-19T01:09:20.488Z,4.35
2023-02-19T01:11:48.854Z,4.35
2023-02-19T01:14:17.314Z,4.34
2023-02-19T01:16:45.862Z,4.33
2023-02-19T01:19:14.165Z,4.34
2023-02-19T01:21:42.690Z,4.32
2023-02-19T01:24:11.307Z,4.33
2023-02-19T01:26:40.627Z,4.31
2023-02-19T01:29:08.072Z,4.31
2023-02-19T01:31:36.756Z,4.32
2023-02-19T01:34:05.214Z,4.32
2023-02-19T01:36:34.756Z,4.34
2023-02-19T01:39:04.974Z,4.32
2023-02-19T01:41:38.803Z,4.31
2023-02-19T01:44:28.417Z,4.31
2023-02-19T01:46:58.759Z,4.32
2023-02-19T01:49:35.707Z,4.31
2023-02-19T01:52:34.361Z,4.32
2023-02-19T01:55:08.688Z,4.32
2023-02-19T01:57:47.666Z,4.30
2023-02-19T02:00:17.702Z,4.28
2023-02-19T02:02:53.058Z,4.29
2023-02-19T02:05:57.094Z,4.28
2023-02-19T02:08:47.300Z,4.28
2023-02-19T02:11:14.827Z,4.27
2023-02-19T02:13:43.596Z,4.27
2023-02-19T02:16:41.590Z,4.27
2023-02-19T02:19:52.636Z,4.26
2023-02-19T02:22:56.215Z,4.26
2023-02-19T02:25:41.393Z,4.22
2023-02-19T02:28:21.155Z,4.22
2023-02-19T02:30:58.176Z,4.21
2023-02-19T02:33:43.410Z,4.20
2023-02-19T02:36:20.902Z,4.18
2023-02-19T02:38:54.182Z,4.20
2023-02-19T02:41:25.529Z,4.19
2023-02-19T02:43:55.266Z,4.19
2023-02-19T02:46:37.067Z,4.13
2023-02-19T02:49:23.850Z,4.02
2023-02-19T02:51:56.407Z,4.01
2023-02-19T02:54:53.290Z,3.95
2023-02-19T02:57:23.370Z,3.86
2023-02-19T02:59:53.570Z,3.80
2023-02-19T03:02:28.711Z,3.78
2023-02-19T03:05:31.164Z,3.72
2023-02-19T03:08:36.006Z,3.71
2023-02-19T03:11:28.244Z,3.72
2023-02-19T03:14:44.226Z,3.66
2023-02-19T03:17:43.096Z,3.62
2023-02-19T03:20:19.662Z,3.56
2023-02-19T03:22:52.567Z,3.56
2023-02-19T03:25:49.406Z,3.54
2023-02-19T03:28:44.706Z,3.52
2023-02-19T03:31:21.169Z,3.51
2023-02-19T03:34:00.122Z,3.44
2023-02-19T03:36:41.629Z,3.31
2023-02-19T03:39:17.657Z,3.28
2023-02-19T03:42:17.573Z,3.19
2023-02-19T03:45:18.740Z,3.08
2023-02-19T03:48:18.490Z,3.02
2023-02-19T03:51:01.049Z,2.91
2023-02-19T03:54:06.552Z,2.92
2023-02-19T03:56:43.435Z,2.87
2023-02-19T03:59:27.741Z,2.72
2023-02-19T04:02:09.897Z,2.67
2023-02-19T04:04:49.751Z,2.63
2023-02-19T04:07:20.730Z,2.57
2023-02-19T04:09:52.108Z,2.58
2023-02-19T04:12:21.266Z,2.48
2023-02-19T04:15:10.144Z,2.42
2023-02-19T04:17:48.419Z,2.32
2023-02-19T04:20:20.434Z,2.22
2023-02-19T04:22:50.255Z,2.12
2023-02-19T04:25:21.677Z,2.07
2023-02-19T04:27:51.936Z,2.05
2023-02-19T04:30:22.523Z,2.03
2023-02-19T04:32:52.263Z,2.06
2023-02-19T04:35:20.879Z,2.11
2023-02-19T04:37:49.235Z,2.03
2023-02-19T04:40:17.634Z,1.95
2023-02-19T04:42:46.035Z,1.89
2023-02-19T04:45:14.362Z,1.85
2023-02-19T04:47:42.937Z,1.85
2023-02-19T04:50:11.366Z,1.85
2023-02-19T04:52:39.717Z,1.83
2023-02-19T04:55:09.449Z,1.85
2023-02-19T04:57:36.532Z,1.85
2023-02-19T05:00:06.112Z,1.86
2023-02-19T05:02:33.373Z,1.87
2023-02-19T05:05:01.941Z,1.85
2023-02-19T05:07:30.207Z,1.86
2023-02-19T05:09:59.742Z,1.87
2023-02-19T05:12:27.116Z,1.86
2023-02-19T05:14:55.435Z,1.84
2023-02-19T05:17:23.902Z,1.85
2023-02-19T05:19:52.445Z,1.83
2023-02-19T05:22:20.817Z,1.81
2023-02-19T05:24:49.069Z,1.85
2023-02-19T05:27:17.485Z,1.83
2023-02-19T05:29:46.251Z,1.87
2023-02-19T05:32:14.361Z,1.87
2023-02-19T05:34:42.866Z,1.87
2023-02-19T05:37:11.274Z,1.84
2023-02-19T05:39:39.705Z,1.81
2023-02-19T05:42:12.491Z,1.80
2023-02-19T05:44:43.419Z,1.79
2023-02-19T05:47:13.236Z,1.82
2023-02-19T05:49:43.059Z,1.86
2023-02-19T05:52:12.894Z,1.87
2023-02-19T05:54:42.653Z,1.84
2023-02-19T05:57:12.403Z,1.85
2023-02-19T05:59:42.220Z,1.76
2023-02-19T06:02:12.108Z,1.83
2023-02-19T06:04:41.921Z,1.84
2023-02-19T06:07:11.621Z,1.89
2023-02-19T06:09:41.345Z,1.93
2023-02-19T06:12:16.599Z,1.94
2023-02-19T06:14:46.320Z,1.94
2023-02-19T06:17:16.706Z,1.89
2023-02-19T06:19:46.490Z,1.81
2023-02-19T06:22:17.052Z,1.81
2023-02-19T06:24:48.298Z,1.79
2023-02-19T06:27:18.523Z,1.73
2023-02-19T06:29:48.228Z,1.74
2023-02-19T06:32:18.553Z,1.71
2023-02-19T06:34:48.478Z,1.73
2023-02-19T06:37:18.311Z,1.72
2023-02-19T06:39:48.189Z,1.71
2023-02-19T06:42:18.780Z,1.69
2023-02-19T06:44:49.174Z,1.71
2023-02-19T06:47:18.932Z,1.77
2023-02-19T06:49:48.734Z,1.81
2023-02-19T06:52:18.532Z,1.71
2023-02-19T06:54:48.473Z,1.72
2023-02-19T06:57:19.214Z,1.72
2023-02-19T06:59:48.942Z,1.76
2023-02-19T07:02:18.824Z,1.76
2023-02-19T07:04:48.552Z,1.77
2023-02-19T07:07:18.248Z,1.77
2023-02-19T07:09:48.185Z,1.82
2023-02-19T07:12:18.108Z,1.78
2023-02-19T07:14:48.255Z,1.83
2023-02-19T07:17:17.989Z,1.87
2023-02-19T07:19:47.892Z,1.77
2023-02-19T07:22:17.801Z,1.77
2023-02-19T07:24:48.039Z,1.82
2023-02-19T07:27:18.122Z,1.79
2023-02-19T07:29:47.901Z,1.82
2023-02-19T07:32:17.857Z,1.95
2023-02-19T07:34:47.663Z,2.02
2023-02-19T07:37:17.576Z,2.07
2023-02-19T07:39:47.397Z,2.13
2023-02-19T07:42:17.435Z,2.15
2023-02-19T07:44:47.190Z,2.10
2023-02-19T07:47:16.918Z,2.15
2023-02-19T07:49:46.730Z,2.10
2023-02-19T07:52:15.154Z,2.18
2023-02-19T07:54:43.590Z,2.36
2023-02-19T07:57:12.370Z,2.78
2023-02-19T07:59:41.082Z,2.81
2023-02-19T08:02:39.035Z,3.04
2023-02-19T08:05:08.899Z,3.33
2023-02-19T08:07:38.734Z,3.42
2023-02-19T08:10:27.681Z,3.65
2023-02-19T08:13:17.955Z,3.32
2023-02-19T08:16:10.909Z,2.77
2023-02-19T08:18:44.714Z,2.71
2023-02-19T08:21:18.162Z,3.51
2023-02-19T08:23:50.852Z,4.08
2023-02-19T08:26:20.694Z,4.10
2023-02-19T08:28:50.592Z,4.18
2023-02-19T08:31:20.435Z,4.25
2023-02-19T08:33:50.456Z,3.96
2023-02-19T08:36:20.400Z,4.11
2023-02-19T08:38:50.475Z,3.98
2023-02-19T08:41:20.847Z,3.62
2023-02-19T08:43:50.762Z,3.56
2023-02-19T08:46:21.287Z,3.66
2023-02-19T08:48:52.185Z,4.16
2023-02-19T08:51:21.950Z,4.24
2023-02-19T08:53:51.651Z,4.52
2023-02-19T08:56:21.482Z,4.85
2023-02-19T08:58:51.320Z,5.22
2023-02-19T09:01:21.163Z,4.89
2023-02-19T09:03:51.005Z,4.01
2023-02-19T09:06:21.621Z,3.71
2023-02-19T09:08:51.458Z,4.70
2023-02-19T09:11:21.264Z,4.77
2023-02-19T09:13:49.629Z,5.88
2023-02-19T09:16:18.100Z,4.67
2023-02-19T09:18:46.659Z,3.81
2023-02-19T09:21:14.939Z,4.96
2023-02-19T09:23:43.380Z,5.01
2023-02-19T09:26:14.012Z,4.25
2023-02-19T09:28:43.472Z,4.94
2023-02-19T09:31:15.706Z,4.36
2023-02-19T09:33:48.460Z,4.62
2023-02-19T09:36:18.836Z,4.21
2023-02-19T09:38:48.543Z,4.37
2023-02-19T09:41:31.891Z,4.35
2023-02-19T09:44:05.566Z,4.56
2023-02-19T09:46:43.387Z,4.32
2023-02-19T09:49:19.721Z,4.26
2023-02-19T09:52:33.428Z,4.25
2023-02-19T09:55:16.487Z,4.72
2023-02-19T09:57:48.596Z,4.94
2023-02-19T10:00:27.016Z,4.97
2023-02-19T10:03:11.070Z,4.54
2023-02-19T10:05:42.295Z,4.33
2023-02-19T10:08:21.647Z,4.29
2023-02-19T10:10:53.336Z,4.39
2023-02-19T10:13:36.092Z,4.25
2023-02-19T10:16:14.820Z,4.00
2023-02-19T10:18:47.267Z,3.90
2023-02-19T10:21:28.083Z,3.95
2023-02-19T10:24:03.020Z,4.15
2023-02-19T10:26:36.556Z,4.90
2023-02-19T10:29:06.987Z,5.36
2023-02-19T10:31:36.931Z,6.82
2023-02-19T10:34:22.162Z,7.05
2023-02-19T10:36:53.267Z,6.59
2023-02-19T10:39:22.960Z,6.47
2023-02-19T10:41:56.446Z,5.49
2023-02-19T10:44:44.069Z,5.57
2023-02-19T10:47:22.505Z,5.12
2023-02-19T10:49:58.140Z,5.45
2023-02-19T10:52:35.376Z,5.61
2023-02-19T10:55:38.517Z,5.68
2023-02-19T10:58:27.642Z,5.73
2023-02-19T11:01:16.850Z,6.50
2023-02-19T11:03:52.679Z,7.19
2023-02-19T11:06:27.035Z,7.18
2023-02-19T11:09:01.135Z,5.94
2023-02-19T11:11:37.602Z,6.35
2023-02-19T11:14:24.443Z,7.39
2023-02-19T11:16:58.366Z,7.66
2023-02-19T11:19:48.177Z,7.80
2023-02-19T11:22:30.958Z,8.43
2023-02-19T11:25:12.771Z,6.88
2023-02-19T11:28:21.738Z,6.51
2023-02-19T11:30:51.530Z,6.02
2023-02-19T11:33:22.424Z,5.58
2023-02-19T11:36:23.226Z,5.20
2023-02-19T11:38:55.519Z,5.33
2023-02-19T11:41:56.663Z,5.38
2023-02-19T11:44:48.588Z,5.57
2023-02-19T11:47:48.751Z,5.56
2023-02-19T11:50:42.925Z,5.64
2023-02-19T11:53:33.700Z,5.98
2023-02-19T11:56:34.175Z,6.12
2023-02-19T11:59:28.571Z,5.91
2023-02-19T12:02:21.080Z,5.78
2023-02-19T12:05:03.212Z,6.00
2023-02-19T12:08:10.677Z,6.18
2023-02-19T12:11:20.617Z,5.69
2023-02-19T12:13:59.228Z,5.76
2023-02-19T12:16:41.390Z,5.81
2023-02-19T12:19:39.406Z,5.46
2023-02-19T12:22:32.433Z,5.48
2023-02-19T12:25:43.812Z,5.28
2023-02-19T12:29:01.674Z,5.22
2023-02-19T12:32:06.258Z,5.44
2023-02-19T12:35:24.627Z,5.72
2023-02-19T12:38:23.345Z,5.84
2023-02-19T12:41:34.723Z,5.70
2023-02-19T12:44:22.821Z,5.78
2023-02-19T12:46:59.549Z,5.63
2023-02-19T12:50:21.892Z,5.47
2023-02-19T12:53:34.309Z,5.19
2023-02-19T12:56:39.136Z,5.13
2023-02-19T12:59:15.814Z,5.13
2023-02-19T13:02:20.075Z,5.10
2023-02-19T13:05:02.764Z,4.96
2023-02-19T13:07:49.197Z,5.02
2023-02-19T13:10:41.819Z,5.07
2023-02-19T13:13:26.730Z,5.25
2023-02-19T13:16:09.817Z,5.56
2023-02-19T13:18:52.296Z,5.80
2023-02-19T13:21:45.676Z,5.93
2023-02-19T13:24:26.537Z,6.00
2023-02-19T13:27:14.549Z,6.19
2023-02-19T13:30:02.627Z,6.30
2023-02-19T13:32:50.938Z,6.11
2023-02-19T13:35:51.858Z,6.17
2023-02-19T13:38:22.004Z,6.07
2023-02-19T13:41:00.454Z,6.18
2023-02-19T13:43:35.363Z,6.34
2023-02-19T13:46:12.519Z,6.31
2023-02-19T13:48:44.417Z,6.55
2023-02-19T13:51:17.193Z,6.73
2023-02-19T13:53:48.083Z,6.42
2023-02-19T13:56:30.102Z,5.95
2023-02-19T13:59:02.622Z,5.91
2023-02-19T14:01:53.471Z,5.83
2023-02-19T14:04:47.616Z,5.69
2023-02-19T14:07:17.258Z,5.71
2023-02-19T14:09:48.252Z,5.66
2023-02-19T14:12:22.720Z,5.69
2023-02-19T14:14:56.622Z,5.79
2023-02-19T14:17:45.950Z,5.52
2023-02-19T14:20:15.956Z,5.55
2023-02-19T14:22:45.679Z,5.70
2023-02-19T14:25:27.891Z,7.04
2023-02-19T14:28:09.872Z,7.04
2023-02-19T14:31:17.468Z,7.08
2023-02-19T14:34:26.912Z,6.72
2023-02-19T14:37:01.705Z,7.20
2023-02-19T14:39:38.741Z,7.16
2023-02-19T14:42:33.660Z,6.82
2023-02-19T14:45:07.882Z,6.18
2023-02-19T14:47:37.921Z,5.77
2023-02-19T14:50:29.617Z,6.07
2023-02-19T14:53:04.784Z,6.19
2023-02-19T14:55:40.369Z,5.85
2023-02-19T14:58:30.834Z,5.77
2023-02-19T15:01:00.614Z,5.87
2023-02-19T15:03:34.157Z,6.38
2023-02-19T15:06:16.375Z,6.07
2023-02-19T15:08:58.343Z,5.93
2023-02-19T15:11:32.467Z,6.02
2023-02-19T15:14:07.616Z,5.84
2023-02-19T15:16:37.709Z,5.86
2023-02-19T15:19:12.658Z,5.50
2023-02-19T15:21:49.749Z,5.36
2023-02-19T15:24:19.928Z,5.19
2023-02-19T15:26:54.595Z,5.11
2023-02-19T15:29:28.369Z,5.02
2023-02-19T15:32:01.539Z,5.03
2023-02-19T15:34:33.091Z,5.18
2023-02-19T15:37:08.046Z,5.19
2023-02-19T15:39:47.250Z,5.13
2023-02-19T15:42:26.538Z,5.03
2023-02-19T15:45:18.780Z,4.91
2023-02-19T15:47:57.809Z,4.86
2023-02-19T15:50:34.172Z,4.76
2023-02-19T15:53:26.263Z,4.68
2023-02-19T15:56:32.456Z,4.60
2023-02-19T15:59:27.974Z,4.49
2023-02-19T16:02:00.643Z,4.44
2023-02-19T16:04:30.854Z,4.37
2023-02-19T16:07:03.689Z,4.34
2023-02-19T16:09:37.030Z,4.29
2023-02-19T16:12:25.384Z,4.18
2023-02-19T16:14:55.168Z,4.15
2023-02-19T16:17:28.183Z,4.10
2023-02-19T16:20:03.322Z,4.03
2023-02-19T16:22:42.613Z,4.01
2023-02-19T16:25:31.374Z,3.96
2023-02-19T16:28:24.742Z,3.93
2023-02-19T16:31:02.113Z,3.84
2023-02-19T16:33:41.403Z,3.78
2023-02-19T16:36:34.058Z,3.74
2023-02-19T16:39:09.717Z,3.67
2023-02-19T16:41:39.348Z,3.60
2023-02-19T16:44:21.542Z,3.50
2023-02-19T16:47:02.401Z,3.45
2023-02-19T16:49:32.671Z,3.41
2023-02-19T16:52:04.590Z,3.32
2023-02-19T16:54:34.687Z,3.24
2023-02-19T16:57:04.578Z,3.21
2023-02-19T16:59:34.426Z,3.19
2023-02-19T17:02:09.063Z,3.15
2023-02-19T17:04:38.813Z,3.04
2023-02-19T17:07:15.455Z,2.91
2023-02-19T17:09:45.958Z,2.73
2023-02-19T17:12:18.170Z,2.55
2023-02-19T17:14:47.128Z,2.37
2023-02-19T17:17:15.573Z,2.28
2023-02-19T17:19:44.133Z,2.18
2023-02-19T17:22:16.856Z,2.05
2023-02-19T17:24:46.016Z,1.92
2023-02-19T17:27:16.004Z,1.83
2023-02-19T17:29:45.813Z,1.70
2023-02-19T17:32:15.876Z,1.53
2023-02-19T17:34:49.454Z,1.49
2023-02-19T17:37:19.261Z,1.42
2023-02-19T17:39:49.339Z,1.32
2023-02-19T17:42:20.076Z,1.24
2023-02-19T17:44:51.854Z,1.13
2023-02-19T17:47:21.757Z,0.99
2023-02-19T17:49:51.603Z,0.94
2023-02-19T17:52:21.366Z,0.92
2023-02-19T17:54:51.173Z,0.87
2023-02-19T17:57:20.949Z,0.78
2023-02-19T17:59:50.736Z,0.78
2023-02-19T18:02:20.484Z,0.82
2023-02-19T18:04:50.256Z,0.90
2023-02-19T18:07:20.056Z,0.92
2023-02-19T18:09:49.933Z,0.88
2023-02-19T18:12:19.986Z,0.87
2023-02-19T18:14:49.755Z,0.95
2023-02-19T18:17:19.500Z,0.93
2023-02-19T18:19:49.416Z,0.87
2023-02-19T18:22:19.427Z,0.85
2023-02-19T18:24:53.033Z,0.89
2023-02-19T18:27:23.684Z,0.82
2023-02-19T18:29:55.829Z,0.81
2023-02-19T18:32:26.182Z,0.80
2023-02-19T18:34:59.222Z,0.78
2023-02-19T18:37:33.788Z,0.80
2023-02-19T18:40:05.294Z,0.79
2023-02-19T18:42:35.442Z,0.75
2023-02-19T18:45:05.357Z,0.77
2023-02-19T18:47:35.155Z,0.69
2023-02-19T18:50:08.253Z,0.52
2023-02-19T18:52:38.014Z,0.45
2023-02-19T18:55:10.538Z,0.43
2023-02-19T18:57:40.426Z,0.38
2023-02-19T19:00:23.532Z,0.32
2023-02-19T19:02:51.625Z,0.26
2023-02-19T19:05:23.170Z,0.31
2023-02-19T19:07:55.405Z,0.34
2023-02-19T19:10:25.782Z,0.33
2023-02-19T19:12:55.712Z,0.30
2023-02-19T19:15:26.107Z,0.33
2023-02-19T19:17:55.949Z,0.32
2023-02-19T19:20:25.897Z,0.18
2023-02-19T19:22:55.683Z,0.08
2023-02-19T19:25:25.537Z,-0.00
2023-02-19T19:27:56.236Z,-0.02
2023-02-19T19:30:26.572Z,-0.05
2023-02-19T19:32:57.432Z,-0.06
2023-02-19T19:35:28.654Z,-0.07
2023-02-19T19:37:58.302Z,-0.10
2023-02-19T19:40:28.182Z,-0.07
2023-02-19T19:42:57.932Z,-0.04
2023-02-19T19:45:27.832Z,-0.04
2023-02-19T19:47:57.715Z,-0.06
2023-02-19T19:50:27.889Z,-0.08
2023-02-19T19:52:57.764Z,-0.11
2023-02-19T19:55:27.596Z,-0.16
2023-02-19T19:57:57.306Z,-0.20
2023-02-19T20:00:27.400Z,-0.25
2023-02-19T20:02:57.878Z,-0.24
2023-02-19T20:05:27.732Z,-0.27
2023-02-19T20:07:57.519Z,-0.30
2023-02-19T20:10:27.256Z,-0.36
2023-02-19T20:12:55.691Z,-0.44
2023-02-19T20:15:24.240Z,-0.48
2023-02-19T20:17:52.612Z,-0.53
2023-02-19T20:20:22.636Z,-0.64
2023-02-19T20:22:53.503Z,-0.59
2023-02-19T20:25:23.728Z,-0.61
2023-02-19T20:27:52.635Z,-0.66
2023-02-19T20:30:23.869Z,-0.71
2023-02-19T20:32:53.766Z,-0.74
2023-02-19T20:35:26.845Z,-0.80
2023-02-19T20:37:56.795Z,-0.84
2023-02-19T20:40:30.377Z,-0.86
2023-02-19T20:43:01.027Z,-0.88
2023-02-19T20:45:31.116Z,-0.94
2023-02-19T20:48:01.127Z,-1.00
2023-02-19T20:50:31.055Z,-0.96
2023-02-19T20:53:01.152Z,-0.97
2023-02-19T20:55:32.063Z,-0.90
2023-02-19T20:58:01.888Z,-0.85
2023-02-19T21:00:31.652Z,-0.76
2023-02-19T21:03:01.553Z,-0.76
2023-02-19T21:05:31.290Z,-0.79
2023-02-19T21:08:01.055Z,-0.86
2023-02-19T21:10:31.222Z,-0.84
2023-02-19T21:13:00.988Z,-0.87
2023-02-19T21:15:30.769Z,-0.88
2023-02-19T21:18:00.518Z,-0.92
2023-02-19T21:20:30.606Z,-0.95
2023-02-19T21:23:01.183Z,-0.98
2023-02-19T21:25:33.084Z,-1.02
2023-02-19T21:28:02.793Z,-1.03
2023-02-19T21:30:32.607Z,-1.07
2023-02-19T21:33:00.987Z,-1.08
2023-02-19T21:35:29.464Z,-1.09
2023-02-19T21:37:58.019Z,-1.16
2023-02-19T21:40:28.067Z,-1.22
2023-02-19T21:42:58.260Z,-1.19
2023-02-19T21:45:26.364Z,-1.22
2023-02-19T21:47:55.166Z,-1.21
2023-02-19T21:50:23.405Z,-1.18
2023-02-19T21:52:51.434Z,-1.22
2023-02-19T21:55:19.989Z,-1.17
2023-02-19T21:57:48.322Z,-1.13
2023-02-19T22:00:17.334Z,-1.04
2023-02-19T22:02:45.228Z,-0.98
2023-02-19T22:05:13.676Z,-0.91
2023-02-19T22:07:42.099Z,-0.73
2023-02-19T22:10:10.863Z,-0.65
2023-02-19T22:12:38.942Z,-0.53
2023-02-19T22:15:08.004Z,-0.43
2023-02-19T22:17:35.815Z,-0.38
2023-02-19T22:20:06.130Z,-0.33
2023-02-19T22:22:35.871Z,-0.31
2023-02-19T22:25:06.462Z,-0.26
2023-02-19T22:27:36.231Z,-0.27
2023-02-19T22:30:07.340Z,-0.23
2023-02-19T22:32:35.045Z,-0.22
2023-02-19T22:35:05.108Z,-0.25
2023-02-19T22:37:34.882Z,-0.26
2023-02-19T22:40:05.499Z,-0.31
2023-02-19T22:42:36.139Z,-0.37
2023-02-19T22:45:07.290Z,-0.39
2023-02-19T22:47:37.041Z,-0.42
2023-02-19T22:50:08.105Z,-0.44
2023-02-19T22:52:37.886Z,-0.51
2023-02-19T22:55:07.877Z,-0.58
2023-02-19T22:57:37.649Z,-0.60
2023-02-19T23:00:09.171Z,-0.64
2023-02-19T23:02:38.856Z,-0.65
2023-02-19T23:05:08.659Z,-0.60
2023-02-19T23:07:38.464Z,-0.68
2023-02-19T23:10:09.464Z,-0.76
2023-02-19T23:12:41.137Z,-0.81
2023-02-19T23:15:11.682Z,-0.76
2023-02-19T23:17:41.658Z,-0.82
2023-02-19T23:20:12.426Z,-0.92
2023-02-19T23:22:42.131Z,-0.95
2023-02-19T23:25:11.912Z,-0.99
2023-02-19T23:27:41.921Z,-1.06
2023-02-19T23:30:12.701Z,-1.08
2023-02-19T23:32:43.300Z,-1.14
2023-02-19T23:35:13.747Z,-1.22
2023-02-19T23:37:43.440Z,-1.22
2023-02-19T23:40:13.971Z,-1.24
2023-02-19T23:42:43.684Z,-1.12
2023-02-19T23:45:16.696Z,-1.12
2023-02-19T23:47:46.470Z,-1.09
2023-02-19T23:50:17.141Z,-1.06
2023-02-19T23:52:46.932Z,-1.01
2023-02-19T23:55:17.005Z,-0.94
2023-02-19T23:57:46.822Z,-0.92
